Time;durP1;ratioP1;P1;durP2;ratioP2;P2;SDS_P1;SDS_P2;PMS_P1;PMS_P2;Temp;Humidity;BMP_temperature;BMP_pressure;BME280_temperature;BME280_humidity;BME280_pressure;Samples;Min_cycle;Max_cycle;Signal;HPM_P1;HPM_P2
2022/02/13 00:01:20;;;;;;;18.20;12.80;;;28.50;77.60;;;;;;5148333;27;20015;-54
2022/02/13 00:03:47;;;;;;;16.10;11.75;;;28.50;77.60;;;;;;5147890;27;20019;-54
2022/02/13 00:06:14;;;;;;;19.83;10.77;;;28.50;77.10;;;;;;5129502;27;20023;-53
2022/02/13 00:08:40;;;;;;;13.80;10.73;;;28.50;77.20;;;;;;5148010;27;20019;-52
2022/02/13 00:11:07;;;;;;;15.75;9.85;;;28.50;77.00;;;;;;5147661;27;20027;-55
2022/02/13 00:13:34;;;;;;;20.38;10.18;;;28.50;76.80;;;;;;5147882;27;20036;-55
2022/02/13 00:16:00;;;;;;;12.05;8.98;;;28.50;76.60;;;;;;5147805;27;20019;-57
2022/02/13 00:18:27;;;;;;;13.95;9.07;;;28.50;76.40;;;;;;5147602;27;20011;-54
2022/02/13 00:20:53;;;;;;;12.07;8.23;;;28.50;76.50;;;;;;5147886;27;20023;-54
2022/02/13 00:23:20;;;;;;;11.05;7.95;;;28.50;76.10;;;;;;5147630;27;20025;-59
2022/02/13 00:25:47;;;;;;;28.23;9.70;;;28.50;75.90;;;;;;5147702;27;20033;-55
2022/02/13 00:28:13;;;;;;;13.65;8.13;;;28.50;75.80;;;;;;5147547;27;20062;-54
2022/02/13 00:30:46;;;;;;;20.13;9.02;;;28.40;75.50;;;;;;5147381;27;20312;-54
2022/02/13 00:33:14;;;;;;;22.48;13.30;;;28.50;75.50;;;;;;5147210;27;20022;-53
2022/02/13 00:35:41;;;;;;;18.58;12.07;;;28.40;75.20;;;;;;5147784;27;20311;-54
2022/02/13 00:38:09;;;;;;;16.60;9.60;;;28.40;75.10;;;;;;5147572;27;20015;-53
2022/02/13 00:40:35;;;;;;;16.58;8.63;;;28.40;74.90;;;;;;5147469;27;20031;-55
2022/02/13 00:43:02;;;;;;;13.00;8.13;;;28.40;74.60;;;;;;5147334;27;20035;-55
2022/02/13 00:45:29;;;;;;;13.55;7.78;;;28.40;74.60;;;;;;5147509;27;20034;-53
2022/02/13 00:48:04;;;;;;;19.38;8.93;;;28.40;74.30;;;;;;5145982;27;20023;-59
2022/02/13 00:50:31;;;;;;;14.20;8.32;;;28.40;74.10;;;;;;5147261;27;20047;-56
2022/02/13 00:52:57;;;;;;;12.68;7.10;;;28.40;73.80;;;;;;5145667;27;20015;-50
2022/02/13 00:55:24;;;;;;;14.48;7.47;;;28.40;73.40;;;;;;5128575;27;20034;-57
2022/02/13 00:57:51;;;;;;;12.80;7.80;;;28.30;73.80;;;;;;5147311;27;20019;-57
2022/02/13 01:00:17;;;;;;;15.77;7.40;;;28.40;73.20;;;;;;5147033;27;20138;-50
2022/02/13 01:02:44;;;;;;;10.52;6.55;;;28.40;73.00;;;;;;5146898;27;20070;-56
2022/02/13 01:05:11;;;;;;;13.05;6.45;;;28.30;72.40;;;;;;5146824;27;20015;-58
2022/02/13 01:07:37;;;;;;;10.65;6.43;;;28.30;72.40;;;;;;5146880;27;20093;-57
2022/02/13 01:10:05;;;;;;;10.77;6.40;;;28.30;72.20;;;;;;5146774;27;20072;-54
2022/02/13 01:12:32;;;;;;;10.85;6.22;;;28.30;72.00;;;;;;5146855;27;20043;-57
2022/02/13 01:14:59;;;;;;;11.25;5.95;;;28.30;71.90;;;;;;5146578;27;20019;-54
2022/02/13 01:17:25;;;;;;;10.57;6.80;;;28.30;71.80;;;;;;5147443;27;20391;-54
2022/02/13 01:19:52;;;;;;;10.50;6.03;;;28.30;71.60;;;;;;5146957;27;20194;-53
2022/02/13 01:22:19;;;;;;;18.10;6.22;;;28.30;71.30;;;;;;5115511;28;20323;-56
2022/02/13 01:24:46;;;;;;;12.82;5.95;;;28.30;71.50;;;;;;5113036;28;20219;-55
2022/02/13 01:27:13;;;;;;;14.90;5.97;;;28.30;71.70;;;;;;5118916;28;20068;-51
2022/02/13 01:29:40;;;;;;;16.63;6.25;;;28.30;71.70;;;;;;5121403;28;20008;-57
2022/02/13 01:32:07;;;;;;;12.63;5.60;;;28.30;71.40;;;;;;5119612;28;20027;-53
2022/02/13 01:34:33;;;;;;;11.00;5.72;;;28.30;71.30;;;;;;5117328;28;20072;-49
2022/02/13 01:37:00;;;;;;;12.45;6.13;;;28.30;71.40;;;;;;5123084;28;20016;-49
2022/02/13 01:39:28;;;;;;;13.80;7.80;;;28.30;71.20;;;;;;5125520;28;20366;-52
2022/02/13 01:41:56;;;;;;;11.30;6.75;;;28.30;71.10;;;;;;5125085;28;20027;-54
2022/02/13 01:44:32;;;;;;;15.05;7.45;;;28.30;71.00;;;;;;5123822;28;20424;-53
2022/02/13 01:47:00;;;;;;;9.02;6.78;;;28.30;70.70;;;;;;5123938;28;20024;-51
2022/02/13 01:49:26;;;;;;;12.25;6.53;;;28.30;70.50;;;;;;5124346;28;20045;-54
2022/02/13 01:51:55;;;;;;;7.93;5.55;;;28.20;70.20;;;;;;5125176;28;20024;-50
2022/02/13 01:54:22;;;;;;;7.38;5.63;;;28.20;70.00;;;;;;5122981;28;20031;-52
2022/02/13 01:56:49;;;;;;;7.10;5.95;;;28.20;69.90;;;;;;5125429;28;20027;-53
2022/02/13 01:59:16;;;;;;;14.30;5.45;;;28.20;69.60;;;;;;5125515;28;20023;-52
2022/02/13 02:01:42;;;;;;;9.82;5.65;;;28.20;69.60;;;;;;5125451;28;20311;-56
2022/02/13 02:04:12;;;;;;;8.75;5.53;;;28.20;69.40;;;;;;5124777;28;20027;-53
2022/02/13 02:06:39;;;;;;;9.88;6.30;;;28.20;69.50;;;;;;5125543;28;20077;-51
2022/02/13 02:09:06;;;;;;;10.45;5.43;;;28.20;69.40;;;;;;5125009;28;20024;-48
2022/02/13 02:11:33;;;;;;;8.45;5.53;;;28.20;69.50;;;;;;5125422;28;20050;-49
2022/02/13 02:14:00;;;;;;;8.57;5.70;;;28.20;69.50;;;;;;5125112;28;20041;-55
2022/02/13 02:16:27;;;;;;;7.78;5.53;;;28.20;69.40;;;;;;5123793;28;20073;-54
2022/02/13 02:18:53;;;;;;;11.48;6.18;;;28.20;69.30;;;;;;5125077;28;20300;-51
2022/02/13 02:21:20;;;;;;;8.98;6.10;;;28.10;69.10;;;;;;5125038;28;20031;-52
2022/02/13 02:23:47;;;;;;;8.05;6.15;;;28.10;69.20;;;;;;5124685;28;20033;-51
2022/02/13 02:26:19;;;;;;;9.43;6.13;;;28.10;69.10;;;;;;5123817;28;20031;-57
2022/02/13 02:28:46;;;;;;;8.02;5.63;;;28.10;69.10;;;;;;5124728;28;20311;-55
2022/02/13 02:31:13;;;;;;;9.82;5.60;;;28.10;69.00;;;;;;5124827;28;20091;-55
2022/02/13 02:33:40;;;;;;;13.48;5.88;;;28.10;69.00;;;;;;5124723;28;20019;-54
2022/02/13 02:36:15;;;;;;;10.98;5.43;;;28.10;68.90;;;;;;5123671;28;20023;-52
2022/02/13 02:38:42;;;;;;;8.15;5.38;;;28.10;68.60;;;;;;5125300;28;20012;-56
2022/02/13 02:41:09;;;;;;;8.32;5.72;;;28.10;68.70;;;;;;5123696;28;20266;-60
2022/02/13 02:43:35;;;;;;;8.57;5.68;;;28.10;68.70;;;;;;5124778;28;20026;-54
2022/02/13 02:46:02;;;;;;;9.65;5.97;;;28.10;68.50;;;;;;5124636;28;20024;-55
2022/02/13 02:48:28;;;;;;;9.98;5.70;;;28.00;68.60;;;;;;5124597;28;20019;-51
2022/02/13 02:50:55;;;;;;;11.30;5.50;;;28.10;68.40;;;;;;5124775;28;20189;-52
2022/02/13 02:53:21;;;;;;;13.73;11.30;;;28.10;68.20;;;;;;5124481;28;20015;-50
2022/02/13 02:55:48;;;;;;;10.20;7.22;;;28.10;68.30;;;;;;5124886;28;20303;-52
2022/02/13 02:58:14;;;;;;;11.85;7.85;;;28.10;68.10;;;;;;5124535;28;20024;-54
2022/02/13 03:00:41;;;;;;;9.07;6.45;;;28.00;68.10;;;;;;5124347;28;20195;-54
2022/02/13 03:03:08;;;;;;;9.27;5.97;;;28.00;67.90;;;;;;5123398;28;20020;-53
2022/02/13 03:05:35;;;;;;;9.52;5.85;;;28.00;67.80;;;;;;5124543;28;20023;-52
2022/02/13 03:08:01;;;;;;;7.95;5.22;;;28.00;67.90;;;;;;5124367;28;20008;-54
2022/02/13 03:10:28;;;;;;;10.00;5.47;;;28.00;67.80;;;;;;5124429;28;20233;-52
2022/02/13 03:12:54;;;;;;;11.52;6.13;;;28.00;67.80;;;;;;5122878;28;20054;-56
2022/02/13 03:15:21;;;;;;;10.75;5.28;;;28.00;67.80;;;;;;5123368;28;20012;-54
2022/02/13 03:17:48;;;;;;;13.55;5.32;;;28.00;68.30;;;;;;5127353;28;20083;-51
2022/02/13 03:20:14;;;;;;;10.32;5.40;;;28.00;68.00;;;;;;5128325;27;20016;-57
2022/02/13 03:22:41;;;;;;;8.70;5.35;;;28.00;67.90;;;;;;5128238;28;20016;-54
2022/02/13 03:25:08;;;;;;;23.92;21.65;;;28.00;68.10;;;;;;5128353;28;20023;-54
2022/02/13 03:27:34;;;;;;;11.85;5.97;;;28.00;68.20;;;;;;5127038;28;20307;-52
2022/02/13 03:30:01;;;;;;;8.00;5.32;;;28.00;68.10;;;;;;5128133;28;20019;-54
2022/02/13 03:32:28;;;;;;;24.70;17.27;;;28.00;68.00;;;;;;5128926;28;20023;-50
2022/02/13 03:34:54;;;;;;;10.90;6.68;;;27.90;67.80;;;;;;5128086;28;20124;-56
2022/02/13 03:37:21;;;;;;;6.78;5.43;;;27.90;67.90;;;;;;5128492;28;20024;-52
2022/02/13 03:39:48;;;;;;;9.82;5.28;;;27.90;68.00;;;;;;5128057;28;20015;-51
2022/02/13 03:42:14;;;;;;;7.60;5.05;;;27.90;68.00;;;;;;5127073;28;20298;-55
2022/02/13 03:44:42;;;;;;;8.93;5.13;;;27.90;68.20;;;;;;5127922;28;20023;-50
2022/02/13 03:47:09;;;;;;;9.90;5.45;;;27.90;68.10;;;;;;5128477;28;20303;-57
2022/02/13 03:49:35;;;;;;;5.80;5.10;;;27.90;68.10;;;;;;5126689;28;20208;-51
2022/02/13 03:52:02;;;;;;;5.65;4.93;;;27.90;68.20;;;;;;5126841;28;20027;-56
2022/02/13 03:54:29;;;;;;;9.32;5.30;;;27.90;68.20;;;;;;5126460;28;20335;-55
2022/02/13 03:56:55;;;;;;;11.13;4.70;;;27.80;67.90;;;;;;5128160;28;20069;-54
2022/02/13 03:59:22;;;;;;;7.53;4.70;;;27.90;67.90;;;;;;5127736;28;20016;-51
2022/02/13 04:01:49;;;;;;;10.88;4.93;;;27.80;68.00;;;;;;5127935;28;20054;-48
2022/02/13 04:04:15;;;;;;;6.68;5.13;;;27.90;68.10;;;;;;5127683;28;20016;-51
2022/02/13 04:06:42;;;;;;;8.80;4.90;;;27.80;67.70;;;;;;5127898;28;20031;-49
2022/02/13 04:09:08;;;;;;;15.32;12.30;;;27.80;67.80;;;;;;5127321;28;20043;-54
2022/02/13 04:11:35;;;;;;;8.18;5.78;;;27.80;67.80;;;;;;5127358;27;20032;-50
2022/02/13 04:14:02;;;;;;;8.82;7.20;;;27.80;67.60;;;;;;5147927;27;20304;-54
2022/02/13 04:16:28;;;;;;;7.70;5.55;;;27.80;67.60;;;;;;5148029;27;20054;-49
2022/02/13 04:18:55;;;;;;;7.30;5.03;;;27.80;67.70;;;;;;5147724;27;20207;-50
2022/02/13 04:21:21;;;;;;;8.43;5.20;;;27.80;67.50;;;;;;5148207;27;20019;-51
2022/02/13 04:23:48;;;;;;;6.63;4.90;;;27.80;67.30;;;;;;5129350;27;20019;-55
2022/02/13 04:26:15;;;;;;;8.23;5.00;;;27.80;67.50;;;;;;5148131;27;20237;-59
2022/02/13 04:28:41;;;;;;;8.13;4.78;;;27.80;67.20;;;;;;5147427;27;20078;-53
2022/02/13 04:31:08;;;;;;;6.68;4.88;;;27.70;66.80;;;;;;5147657;27;20030;-52
2022/02/13 04:33:34;;;;;;;7.05;4.70;;;27.70;66.70;;;;;;5147456;27;20026;-55
2022/02/13 04:36:02;;;;;;;9.65;4.88;;;27.70;66.60;;;;;;5148207;27;20086;-50
2022/02/13 04:38:29;;;;;;;11.18;4.80;;;27.70;66.50;;;;;;5147806;27;20025;-55
2022/02/13 04:40:56;;;;;;;5.93;4.68;;;27.70;66.40;;;;;;5129203;27;20035;-55
2022/02/13 04:43:22;;;;;;;6.03;4.57;;;27.70;66.30;;;;;;5147408;27;20029;-49
2022/02/13 04:45:49;;;;;;;7.65;4.70;;;27.70;66.20;;;;;;5147343;27;20068;-53
2022/02/13 04:48:16;;;;;;;7.20;4.78;;;27.70;66.30;;;;;;5147377;27;20082;-49
2022/02/13 04:50:42;;;;;;;9.00;4.30;;;27.70;66.30;;;;;;5147356;27;20027;-52
2022/02/13 04:53:09;;;;;;;7.07;4.60;;;27.70;66.30;;;;;;5146878;27;20318;-56
2022/02/13 04:55:35;;;;;;;7.82;4.78;;;27.70;66.20;;;;;;5147276;27;20027;-48
2022/02/13 04:58:05;;;;;;;7.07;4.57;;;27.70;66.30;;;;;;5147333;27;20019;-53
2022/02/13 05:00:32;;;;;;;6.05;4.63;;;27.70;66.20;;;;;;5146848;27;20030;-52
2022/02/13 05:02:58;;;;;;;5.95;4.15;;;27.60;66.00;;;;;;5147198;27;20015;-52
2022/02/13 05:05:25;;;;;;;5.22;4.38;;;27.70;66.40;;;;;;5147337;27;20110;-50
2022/02/13 05:07:51;;;;;;;7.90;4.85;;;27.70;66.60;;;;;;5146897;27;20022;-54
2022/02/13 05:10:18;;;;;;;6.85;4.80;;;27.70;66.30;;;;;;5147193;27;20294;-49
2022/02/13 05:12:44;;;;;;;7.07;4.40;;;27.60;66.20;;;;;;5146650;27;20051;-51
2022/02/13 05:15:11;;;;;;;8.13;5.30;;;27.60;66.10;;;;;;5146661;27;20311;-54
2022/02/13 05:17:38;;;;;;;7.68;5.20;;;27.60;66.20;;;;;;5146926;27;20038;-51
2022/02/13 05:20:08;;;;;;;7.65;4.35;;;27.60;66.70;;;;;;5146409;27;20025;-46
2022/02/13 05:22:35;;;;;;;10.05;4.55;;;27.60;66.10;;;;;;5146456;27;20011;-50
2022/02/13 05:25:01;;;;;;;8.60;4.57;;;27.60;66.40;;;;;;5146814;27;20026;-55
2022/02/13 05:27:28;;;;;;;8.05;4.47;;;27.60;66.10;;;;;;5147186;27;20027;-50
2022/02/13 05:29:54;;;;;;;7.97;4.78;;;27.60;66.20;;;;;;5146895;27;20019;-50
2022/02/13 05:32:21;;;;;;;6.72;4.93;;;27.60;66.40;;;;;;5146811;27;20027;-50
2022/02/13 05:34:48;;;;;;;7.03;4.60;;;27.50;66.40;;;;;;5146295;27;20023;-49
2022/02/13 05:37:14;;;;;;;12.48;4.88;;;27.50;66.40;;;;;;5147021;27;20027;-49
2022/02/13 05:39:42;;;;;;;6.93;4.32;;;27.50;66.40;;;;;;5145609;27;20022;-48
2022/02/13 05:42:10;;;;;;;10.43;4.72;;;27.50;66.40;;;;;;5146809;27;20015;-50
2022/02/13 05:44:38;;;;;;;8.75;4.05;;;27.50;66.30;;;;;;5146071;27;20330;-47
2022/02/13 05:47:06;;;;;;;9.70;5.13;;;27.50;66.20;;;;;;5146370;27;20093;-49
2022/02/13 05:49:33;;;;;;;6.43;4.45;;;27.50;66.20;;;;;;5145968;27;20231;-48
2022/02/13 05:51:59;;;;;;;7.60;4.40;;;27.50;66.40;;;;;;5146493;27;20124;-52
2022/02/13 05:54:26;;;;;;;6.28;4.40;;;27.50;66.20;;;;;;5145804;27;20071;-55
2022/02/13 05:56:52;;;;;;;7.75;4.57;;;27.50;66.40;;;;;;5146650;27;20019;-51
2022/02/13 05:59:19;;;;;;;6.70;4.35;;;27.50;66.50;;;;;;5145896;27;20012;-53
2022/02/13 06:01:46;;;;;;;7.50;4.15;;;27.50;66.40;;;;;;5146132;27;20023;-51
2022/02/13 06:04:12;;;;;;;7.90;4.53;;;27.50;66.20;;;;;;5146252;27;20029;-52
2022/02/13 06:06:39;;;;;;;7.18;4.38;;;27.50;66.30;;;;;;5146464;27;20027;-54
2022/02/13 06:09:06;;;;;;;5.05;4.32;;;27.40;66.30;;;;;;5145729;27;20022;-51
2022/02/13 06:11:32;;;;;;;10.63;4.57;;;27.40;66.30;;;;;;5146281;27;20226;-53
2022/02/13 06:13:59;;;;;;;7.15;4.30;;;27.40;66.40;;;;;;5145611;27;20087;-49
2022/02/13 06:16:25;;;;;;;7.13;4.82;;;27.40;66.30;;;;;;5146042;27;20027;-53
2022/02/13 06:18:52;;;;;;;7.15;3.83;;;27.40;66.30;;;;;;5145979;27;20015;-51
2022/02/13 06:21:21;;;;;;;7.07;4.10;;;27.40;66.30;;;;;;5146041;27;20371;-52
2022/02/13 06:23:49;;;;;;;6.18;4.00;;;27.40;66.40;;;;;;5145403;27;20029;-50
2022/02/13 06:26:16;;;;;;;10.35;4.75;;;27.40;66.60;;;;;;5145607;27;20051;-49
2022/02/13 06:28:43;;;;;;;4.85;4.35;;;27.40;66.90;;;;;;5145196;27;20023;-49
2022/02/13 06:31:09;;;;;;;9.48;4.95;;;27.40;66.90;;;;;;5145576;27;20023;-52
2022/02/13 06:33:36;;;;;;;5.63;3.83;;;27.40;67.20;;;;;;5145524;27;20085;-53
2022/02/13 06:36:03;;;;;;;4.65;4.20;;;27.40;67.20;;;;;;5145464;27;20015;-51
2022/02/13 06:38:29;;;;;;;5.75;4.43;;;27.30;67.50;;;;;;5145407;27;20074;-53
2022/02/13 06:40:56;;;;;;;6.43;4.35;;;27.30;67.10;;;;;;5145858;27;20290;-52
2022/02/13 06:43:22;;;;;;;8.35;3.88;;;27.30;67.20;;;;;;5145506;27;20023;-54
2022/02/13 06:45:49;;;;;;;6.18;4.38;;;27.30;67.50;;;;;;5145256;27;20132;-53
2022/02/13 06:48:15;;;;;;;6.78;4.55;;;27.30;67.30;;;;;;5145149;27;20026;-55
2022/02/13 06:50:42;;;;;;;6.03;4.47;;;27.30;67.20;;;;;;5145134;27;20031;-51
2022/02/13 06:53:09;;;;;;;9.25;5.25;;;27.30;66.90;;;;;;5144883;27;20015;-53
2022/02/13 06:55:35;;;;;;;8.10;4.45;;;27.30;67.00;;;;;;5145529;27;20022;-49
2022/02/13 06:58:02;;;;;;;11.43;4.65;;;27.30;66.80;;;;;;5145035;28;20017;-51
2022/02/13 07:00:29;;;;;;;7.20;4.00;;;27.30;66.80;;;;;;5145443;28;20027;-55
2022/02/13 07:02:56;;;;;;;12.02;5.00;;;27.30;66.80;;;;;;5145304;28;20023;-48
2022/02/13 07:05:25;;;;;;;7.88;4.88;;;27.30;66.80;;;;;;5145073;28;20023;-48
2022/02/13 07:07:52;;;;;;;5.88;4.30;;;27.30;66.70;;;;;;5144919;28;20046;-52
2022/02/13 07:10:19;;;;;;;6.07;4.25;;;27.20;66.50;;;;;;5144876;28;20155;-50
2022/02/13 07:12:46;;;;;;;8.50;4.30;;;27.20;66.30;;;;;;5145021;28;20276;-52
2022/02/13 07:15:12;;;;;;;5.28;3.90;;;27.20;66.40;;;;;;5145150;28;20044;-50
2022/02/13 07:17:39;;;;;;;9.75;4.22;;;27.20;66.20;;;;;;5144927;28;20027;-52
2022/02/13 07:20:07;;;;;;;8.80;4.30;;;27.20;66.10;;;;;;5144754;28;20039;-52
2022/02/13 07:22:34;;;;;;;8.48;4.95;;;27.20;66.10;;;;;;5144908;28;20067;-51
2022/02/13 07:25:01;;;;;;;8.27;4.65;;;27.20;66.00;;;;;;5144870;28;20030;-52
2022/02/13 07:27:27;;;;;;;5.65;4.50;;;27.20;66.10;;;;;;5145259;28;20027;-54
2022/02/13 07:29:54;;;;;;;7.25;4.40;;;27.20;66.20;;;;;;5145160;28;20099;-51
2022/02/13 07:32:20;;;;;;;6.57;4.32;;;27.20;66.20;;;;;;5145461;28;20033;-52
2022/02/13 07:34:47;;;;;;;5.82;4.50;;;27.20;66.50;;;;;;5144865;28;20023;-54
2022/02/13 07:37:13;;;;;;;8.18;4.45;;;27.20;66.70;;;;;;5126616;28;20091;-52
2022/02/13 07:39:40;;;;;;;8.52;4.93;;;27.20;66.70;;;;;;5144638;28;20011;-50
2022/02/13 07:42:07;;;;;;;8.02;4.78;;;27.20;67.20;;;;;;5145130;28;20095;-52
2022/02/13 07:44:34;;;;;;;7.30;4.97;;;27.10;67.20;;;;;;5144808;28;20342;-53
2022/02/13 07:47:00;;;;;;;7.47;4.72;;;27.10;67.00;;;;;;5145090;28;20054;-54
2022/02/13 07:49:27;;;;;;;8.73;4.60;;;27.10;66.80;;;;;;5127002;28;20207;-50
2022/02/13 07:51:54;;;;;;;5.32;4.60;;;27.10;67.00;;;;;;5145501;28;20034;-53
2022/02/13 07:54:20;;;;;;;8.80;4.57;;;27.10;67.00;;;;;;5144734;28;20323;-56
2022/02/13 07:56:47;;;;;;;9.75;4.93;;;27.10;66.80;;;;;;5145107;28;20156;-49
2022/02/13 07:59:14;;;;;;;6.72;4.88;;;27.10;66.90;;;;;;5126378;28;20026;-52
2022/02/13 08:01:40;;;;;;;7.22;4.85;;;27.10;66.70;;;;;;5144566;27;20066;-48
2022/02/13 08:04:07;;;;;;;5.30;4.50;;;27.10;66.70;;;;;;5147841;27;20208;-48
2022/02/13 08:06:33;;;;;;;7.78;4.68;;;27.10;66.30;;;;;;5148571;27;20031;-55
2022/02/13 08:09:00;;;;;;;8.73;4.78;;;27.10;66.40;;;;;;5148108;27;20022;-54
2022/02/13 08:11:26;;;;;;;8.40;4.57;;;27.10;66.70;;;;;;5148407;27;20106;-51
2022/02/13 08:13:54;;;;;;;6.80;4.50;;;27.10;66.60;;;;;;5148191;27;20062;-48
2022/02/13 08:16:21;;;;;;;6.18;4.78;;;27.10;66.80;;;;;;5148615;27;20027;-53
2022/02/13 08:18:47;;;;;;;9.82;4.78;;;27.10;66.80;;;;;;5148513;27;20052;-49
2022/02/13 08:21:14;;;;;;;5.93;4.82;;;27.10;66.90;;;;;;5148208;27;20098;-53
2022/02/13 08:23:41;;;;;;;7.40;4.60;;;27.10;67.00;;;;;;5148382;27;20031;-49
2022/02/13 08:26:09;;;;;;;8.70;4.63;;;27.10;66.90;;;;;;5148032;27;20034;-49
2022/02/13 08:28:36;;;;;;;7.45;4.40;;;27.10;66.80;;;;;;5147631;27;20311;-49
2022/02/13 08:31:03;;;;;;;5.03;4.53;;;27.10;67.20;;;;;;5147831;27;20102;-58
2022/02/13 08:33:30;;;;;;;8.13;5.10;;;27.00;67.40;;;;;;5147670;27;20091;-51
2022/02/13 08:35:56;;;;;;;9.15;4.95;;;27.00;67.20;;;;;;5147673;27;20023;-52
2022/02/13 08:38:23;;;;;;;7.75;4.60;;;27.10;67.20;;;;;;5147599;27;20015;-48
2022/02/13 08:40:51;;;;;;;7.57;4.50;;;27.00;67.30;;;;;;5147850;27;20027;-51
2022/02/13 08:43:19;;;;;;;6.75;4.50;;;27.00;67.00;;;;;;5147461;27;20015;-52
2022/02/13 08:45:46;;;;;;;7.70;4.97;;;27.00;66.90;;;;;;5147888;27;20094;-50
2022/02/13 08:48:13;;;;;;;7.85;4.78;;;27.00;67.20;;;;;;5147472;27;20030;-48
2022/02/13 08:50:40;;;;;;;6.25;4.57;;;27.00;67.10;;;;;;5147461;27;20054;-48
2022/02/13 08:53:07;;;;;;;6.97;4.60;;;27.00;67.10;;;;;;5147361;27;20051;-49
2022/02/13 08:55:34;;;;;;;7.60;4.85;;;27.00;67.30;;;;;;5147978;27;20350;-52
2022/02/13 08:58:01;;;;;;;10.32;4.60;;;27.00;67.40;;;;;;5147311;27;20307;-54
2022/02/13 09:00:27;;;;;;;7.25;4.63;;;27.00;67.40;;;;;;5147174;27;20023;-48
2022/02/13 09:02:54;;;;;;;8.98;4.82;;;27.00;67.30;;;;;;5147273;27;20023;-53
2022/02/13 09:05:20;;;;;;;6.43;4.55;;;27.00;67.60;;;;;;5147087;27;20023;-48
2022/02/13 09:07:47;;;;;;;7.25;4.78;;;27.00;67.70;;;;;;5147246;27;20027;-51
2022/02/13 09:10:15;;;;;;;6.22;4.57;;;27.00;68.10;;;;;;5147372;27;20323;-52
2022/02/13 09:12:43;;;;;;;9.13;4.93;;;27.00;68.20;;;;;;5146993;27;20050;-52
2022/02/13 09:15:11;;;;;;;7.85;5.20;;;27.00;68.00;;;;;;5146083;27;20023;-51
2022/02/13 09:17:37;;;;;;;7.03;4.50;;;27.00;68.20;;;;;;5147232;27;20011;-55
2022/02/13 09:20:06;;;;;;;7.78;4.40;;;27.00;68.20;;;;;;5147567;27;20052;-54
2022/02/13 09:22:32;;;;;;;6.00;4.72;;;27.00;68.30;;;;;;5146833;27;20242;-51
2022/02/13 09:24:59;;;;;;;8.57;5.10;;;27.00;68.10;;;;;;5146892;27;20034;-55
2022/02/13 09:27:26;;;;;;;5.50;4.85;;;27.00;68.00;;;;;;5147446;27;20042;-58
2022/02/13 09:29:54;;;;;;;10.40;4.93;;;27.00;68.20;;;;;;5147065;27;20019;-57
2022/02/13 09:32:21;;;;;;;7.22;4.40;;;27.00;68.20;;;;;;5147142;27;20087;-50
2022/02/13 09:34:48;;;;;;;7.03;5.03;;;27.00;68.30;;;;;;5146819;27;20175;-55
2022/02/13 09:37:14;;;;;;;7.40;4.88;;;27.00;68.50;;;;;;5146856;27;20288;-54
2022/02/13 09:39:41;;;;;;;6.05;4.88;;;26.90;68.20;;;;;;5146562;27;20352;-48
2022/02/13 09:42:09;;;;;;;7.75;4.97;;;26.90;68.30;;;;;;5146668;27;20199;-52
2022/02/13 09:44:36;;;;;;;5.95;4.53;;;26.90;68.00;;;;;;5146691;27;20027;-53
2022/02/13 09:47:03;;;;;;;7.25;4.68;;;26.90;68.50;;;;;;5145509;27;20019;-54
2022/02/13 09:49:29;;;;;;;8.70;4.65;;;26.90;68.40;;;;;;5144377;27;20343;-53
2022/02/13 09:51:56;;;;;;;6.68;4.68;;;26.90;68.30;;;;;;5144935;27;20038;-54
2022/02/13 09:54:23;;;;;;;9.73;5.00;;;27.00;68.20;;;;;;5145011;27;20083;-56
2022/02/13 09:56:50;;;;;;;7.85;5.28;;;26.90;68.20;;;;;;5145054;27;20237;-57
2022/02/13 09:59:16;;;;;;;7.28;4.85;;;26.90;68.10;;;;;;5144882;27;20015;-58
2022/02/13 10:01:47;;;;;;;8.30;4.90;;;26.90;68.20;;;;;;5145669;27;20072;-53
2022/02/13 10:04:14;;;;;;;8.00;4.47;;;26.90;68.40;;;;;;5146650;27;20025;-53
2022/02/13 10:06:41;;;;;;;7.38;4.63;;;26.90;68.80;;;;;;5144825;27;20064;-54
2022/02/13 10:09:09;;;;;;;7.95;4.65;;;26.90;68.80;;;;;;5144157;27;20027;-55
2022/02/13 10:11:39;;;;;;;9.13;4.75;;;26.90;68.80;;;;;;5144324;27;20241;-52
2022/02/13 10:14:15;;;;;;;6.97;4.60;;;26.90;68.90;;;;;;5144560;27;20035;-50
2022/02/13 10:16:49;;;;;;;6.88;4.95;;;26.90;69.70;;;;;;5144929;27;20031;-56
2022/02/13 10:19:19;;;;;;;7.93;4.97;;;26.90;69.30;;;;;;5144768;27;20022;-51
2022/02/13 10:21:56;;;;;;;8.05;4.90;;;26.90;69.70;;;;;;5146571;27;20240;-52
2022/02/13 10:24:33;;;;;;;5.60;4.90;;;26.90;70.10;;;;;;5146455;27;20063;-52
2022/02/13 10:27:03;;;;;;;9.43;5.10;;;26.90;70.80;;;;;;5146225;27;20076;-53
2022/02/13 10:29:32;;;;;;;6.75;4.95;;;26.90;70.30;;;;;;5146213;27;20023;-51
2022/02/13 10:32:30;;;;;;;8.82;4.63;;;26.90;70.40;;;;;;5146628;27;20031;-54
2022/02/13 10:35:12;;;;;;;7.65;4.95;;;26.90;70.30;;;;;;5145601;27;20022;-50
2022/02/13 10:37:54;;;;;;;8.27;4.60;;;26.90;70.30;;;;;;5145913;27;20079;-51
2022/02/13 10:40:28;;;;;;;9.25;4.63;;;26.90;70.20;;;;;;5146136;27;20015;-60
2022/02/13 10:43:09;;;;;;;9.38;4.95;;;26.90;70.20;;;;;;5146060;27;20023;-53
2022/02/13 10:45:38;;;;;;;7.32;4.30;;;26.80;70.30;;;;;;5145985;27;20027;-53
2022/02/13 10:48:06;;;;;;;4.85;4.25;;;26.80;70.80;;;;;;5145914;27;20030;-53
2022/02/13 10:50:35;;;;;;;8.85;4.70;;;26.80;71.00;;;;;;5145835;27;20019;-52
2022/02/13 10:53:04;;;;;;;9.10;4.70;;;26.80;71.20;;;;;;5145743;27;20209;-54
2022/02/13 10:55:33;;;;;;;6.15;4.72;;;26.80;71.20;;;;;;5146059;27;20087;-56
2022/02/13 10:58:01;;;;;;;9.77;4.80;;;26.80;71.70;;;;;;5145660;27;20181;-52
2022/02/13 11:00:30;;;;;;;11.13;5.20;;;26.80;72.00;;;;;;5145250;28;20019;-50
2022/02/13 11:03:04;;;;;;;14.90;5.30;;;26.80;72.20;;;;;;5145985;28;20211;-53
2022/02/13 11:05:32;;;;;;;9.52;4.90;;;26.80;72.20;;;;;;5141778;28;20062;-55
2022/02/13 11:08:09;;;;;;;10.38;4.90;;;26.80;72.20;;;;;;5141436;28;20241;-55
2022/02/13 11:10:54;;;;;;;7.85;4.72;;;26.80;72.20;;;;;;5145810;28;20034;-53
2022/02/13 11:13:32;;;;;;;8.63;4.80;;;26.80;72.40;;;;;;5145114;28;20232;-53
2022/02/13 11:15:58;;;;;;;8.35;5.00;;;26.80;72.30;;;;;;5145128;28;20112;-56
2022/02/13 11:18:31;;;;;;;6.85;5.18;;;26.80;72.40;;;;;;5145672;28;20015;-53
2022/02/13 11:21:00;;;;;;;7.65;4.95;;;26.80;72.60;;;;;;5145411;28;20034;-53
2022/02/13 11:23:32;;;;;;;12.35;5.32;;;26.80;72.60;;;;;;5145452;28;20199;-51
2022/02/13 11:26:00;;;;;;;8.25;5.22;;;26.80;72.80;;;;;;5145520;28;20019;-56
2022/02/13 11:28:54;;;;;;;8.15;5.25;;;26.70;72.90;;;;;;5145257;28;20011;-53
2022/02/13 11:31:29;;;;;;;6.88;4.88;;;26.70;73.30;;;;;;5145431;28;20030;-49
2022/02/13 11:33:57;;;;;;;7.38;5.60;;;26.70;74.00;;;;;;5144843;28;20046;-50
2022/02/13 11:36:42;;;;;;;5.40;4.90;;;26.60;73.60;;;;;;5145011;27;20086;-52
2022/02/13 11:39:09;;;;;;;7.80;4.88;;;26.60;73.80;;;;;;5148459;27;20047;-52
2022/02/13 11:41:50;;;;;;;8.98;5.07;;;26.60;73.80;;;;;;5148547;27;20031;-56
2022/02/13 11:44:41;;;;;;;6.97;5.10;;;26.60;73.90;;;;;;5130676;27;20023;-50
2022/02/13 11:47:15;;;;;;;8.70;5.30;;;26.70;74.60;;;;;;5149220;27;20268;-50
2022/02/13 11:50:07;;;;;;;11.02;5.32;;;26.60;74.00;;;;;;5149100;27;20023;-53
2022/02/13 11:52:39;;;;;;;9.30;5.75;;;26.70;74.20;;;;;;5148796;27;20030;-52
2022/02/13 11:55:16;;;;;;;;;;;26.70;74.40;;;;;;5148941;27;20019;-53
2022/02/13 11:58:13;;;;;;;11.18;5.97;;;26.70;74.70;;;;;;5148777;27;20069;-52
2022/02/13 12:00:54;;;;;;;7.05;5.18;;;26.60;74.90;;;;;;5148558;27;20245;-54
2022/02/13 12:03:29;;;;;;;10.30;6.10;;;26.60;75.50;;;;;;5148673;27;20011;-54
2022/02/13 12:06:05;;;;;;;8.80;5.70;;;26.60;75.80;;;;;;5148374;27;20046;-54
2022/02/13 12:08:31;;;;;;;11.07;5.82;;;26.60;75.80;;;;;;5148505;27;20252;-51
2022/02/13 12:11:06;;;;;;;9.75;6.53;;;26.60;75.90;;;;;;5148279;27;20027;-55
2022/02/13 12:13:37;;;;;;;10.02;6.63;;;26.60;76.20;;;;;;5147902;27;20069;-54
2022/02/13 12:16:08;;;;;;;12.93;6.50;;;26.70;76.30;;;;;;5148437;27;20019;-50
2022/02/13 12:18:36;;;;;;;10.10;6.75;;;26.70;76.60;;;;;;5147986;27;20278;-54
2022/02/13 12:21:08;;;;;;;8.30;6.53;;;26.60;76.90;;;;;;5148205;27;20031;-56
2022/02/13 12:23:35;;;;;;;9.30;6.38;;;26.60;77.10;;;;;;5148107;27;20064;-53
2022/02/13 12:26:02;;;;;;;9.63;6.82;;;26.60;77.30;;;;;;5129794;27;20038;-52
2022/02/13 12:28:35;;;;;;;10.95;6.47;;;26.60;77.60;;;;;;5129847;27;20023;-55
2022/02/13 12:31:05;;;;;;;9.68;6.88;;;26.70;77.70;;;;;;5147916;27;20031;-52
2022/02/13 12:33:39;;;;;;;14.52;7.20;;;26.70;78.10;;;;;;5147986;27;20390;-54
2022/02/13 12:36:05;;;;;;;14.13;7.35;;;26.60;78.60;;;;;;5148098;27;20029;-54
2022/02/13 12:38:32;;;;;;;11.50;6.85;;;26.70;78.70;;;;;;5141490;27;20047;-53
2022/02/13 12:41:00;;;;;;;9.75;7.00;;;26.60;78.80;;;;;;5140232;27;20015;-51
2022/02/13 12:43:30;;;;;;;15.05;7.57;;;26.70;78.90;;;;;;5130082;27;20181;-52
2022/02/13 12:45:57;;;;;;;11.20;6.97;;;26.60;79.10;;;;;;5138336;27;20314;-57
2022/02/13 12:48:26;;;;;;;15.63;7.10;;;26.70;79.30;;;;;;5146993;27;20215;-52